sensor_id;sensor_type;location;lat;lon;timestamp;P1;durP1;ratioP1;P2;durP2;ratioP2
77573;SDS011;66710;48.868;9.080;2023-04-03T00:01:00;4.82;;;2.72;;
77573;SDS011;66710;48.868;9.080;2023-04-03T00:03:25;3.70;;;2.33;;
77573;SDS011;66710;48.868;9.080;2023-04-03T00:05:50;4.80;;;2.65;;
77573;SDS011;66710;48.868;9.080;2023-04-03T00:08:16;6.57;;;2.53;;
77573;SDS011;66710;48.868;9.080;2023-04-03T00:10:41;4.90;;;2.30;;
77573;SDS011;66710;48.868;9.080;2023-04-03T00:13:07;4.35;;;2.40;;
77573;SDS011;66710;48.868;9.080;2023-04-03T00:15:33;4.57;;;2.40;;
77573;SDS011;66710;48.868;9.080;2023-04-03T00:17:59;6.38;;;2.50;;
77573;SDS011;66710;48.868;9.080;2023-04-03T00:20:25;5.07;;;2.55;;
77573;SDS011;66710;48.868;9.080;2023-04-03T00:22:50;4.05;;;2.08;;
77573;SDS011;66710;48.868;9.080;2023-04-03T00:25:16;5.50;;;2.47;;
77573;SDS011;66710;48.868;9.080;2023-04-03T00:27:41;5.07;;;2.63;;
77573;SDS011;66710;48.868;9.080;2023-04-03T00:30:07;5.95;;;2.90;;
77573;SDS011;66710;48.868;9.080;2023-04-03T00:32:41;6.15;;;2.70;;
77573;SDS011;66710;48.868;9.080;2023-04-03T00:35:06;4.88;;;2.50;;
77573;SDS011;66710;48.868;9.080;2023-04-03T00:37:32;4.18;;;2.72;;
77573;SDS011;66710;48.868;9.080;2023-04-03T00:39:57;5.40;;;2.65;;
77573;SDS011;66710;48.868;9.080;2023-04-03T00:42:23;5.78;;;2.60;;
77573;SDS011;66710;48.868;9.080;2023-04-03T00:47:17;4.90;;;2.65;;
77573;SDS011;66710;48.868;9.080;2023-04-03T00:49:43;5.82;;;2.80;;
77573;SDS011;66710;48.868;9.080;2023-04-03T00:52:11;6.35;;;2.42;;
77573;SDS011;66710;48.868;9.080;2023-04-03T00:54:40;4.97;;;2.63;;
77573;SDS011;66710;48.868;9.080;2023-04-03T00:57:07;5.03;;;2.45;;
77573;SDS011;66710;48.868;9.080;2023-04-03T00:59:34;5.32;;;2.50;;
77573;SDS011;66710;48.868;9.080;2023-04-03T01:02:03;4.78;;;2.85;;
77573;SDS011;66710;48.868;9.080;2023-04-03T01:07:03;5.72;;;2.40;;
77573;SDS011;66710;48.868;9.080;2023-04-03T01:09:34;3.92;;;2.20;;
77573;SDS011;66710;48.868;9.080;2023-04-03T01:12:19;6.30;;;2.50;;
77573;SDS011;66710;48.868;9.080;2023-04-03T01:14:51;4.32;;;2.40;;
77573;SDS011;66710;48.868;9.080;2023-04-03T01:19:48;6.05;;;2.67;;
77573;SDS011;66710;48.868;9.080;2023-04-03T01:25:37;4.50;;;2.67;;
77573;SDS011;66710;48.868;9.080;2023-04-03T01:28:05;3.80;;;2.33;;
77573;SDS011;66710;48.868;9.080;2023-04-03T01:30:34;5.20;;;2.60;;
77573;SDS011;66710;48.868;9.080;2023-04-03T01:33:03;4.43;;;2.40;;
77573;SDS011;66710;48.868;9.080;2023-04-03T01:35:28;5.45;;;2.53;;
77573;SDS011;66710;48.868;9.080;2023-04-03T01:37:54;4.53;;;2.50;;
77573;SDS011;66710;48.868;9.080;2023-04-03T01:40:19;4.25;;;2.50;;
77573;SDS011;66710;48.868;9.080;2023-04-03T01:42:44;5.63;;;2.80;;
77573;SDS011;66710;48.868;9.080;2023-04-03T01:45:10;5.28;;;2.53;;
77573;SDS011;66710;48.868;9.080;2023-04-03T01:47:35;5.40;;;2.40;;
77573;SDS011;66710;48.868;9.080;2023-04-03T01:50:01;4.22;;;2.60;;
77573;SDS011;66710;48.868;9.080;2023-04-03T01:52:26;4.88;;;2.67;;
77573;SDS011;66710;48.868;9.080;2023-04-03T01:54:51;5.00;;;2.50;;
77573;SDS011;66710;48.868;9.080;2023-04-03T01:57:16;4.95;;;2.60;;
77573;SDS011;66710;48.868;9.080;2023-04-03T01:59:42;4.80;;;2.70;;
77573;SDS011;66710;48.868;9.080;2023-04-03T02:02:07;4.45;;;2.50;;
77573;SDS011;66710;48.868;9.080;2023-04-03T02:04:32;5.40;;;2.85;;
77573;SDS011;66710;48.868;9.080;2023-04-03T02:06:58;4.25;;;2.40;;
77573;SDS011;66710;48.868;9.080;2023-04-03T02:09:23;4.85;;;2.78;;
77573;SDS011;66710;48.868;9.080;2023-04-03T02:11:48;4.78;;;2.50;;
77573;SDS011;66710;48.868;9.080;2023-04-03T02:14:13;6.95;;;2.80;;
77573;SDS011;66710;48.868;9.080;2023-04-03T02:16:39;3.97;;;2.58;;
77573;SDS011;66710;48.868;9.080;2023-04-03T02:19:04;7.55;;;3.08;;
77573;SDS011;66710;48.868;9.080;2023-04-03T02:21:30;5.35;;;2.70;;
77573;SDS011;66710;48.868;9.080;2023-04-03T02:23:55;5.72;;;2.88;;
77573;SDS011;66710;48.868;9.080;2023-04-03T02:26:21;7.88;;;2.70;;
77573;SDS011;66710;48.868;9.080;2023-04-03T02:28:46;4.88;;;2.55;;
77573;SDS011;66710;48.868;9.080;2023-04-03T02:31:12;5.03;;;2.85;;
77573;SDS011;66710;48.868;9.080;2023-04-03T02:33:37;4.10;;;2.60;;
77573;SDS011;66710;48.868;9.080;2023-04-03T02:36:03;4.80;;;2.70;;
77573;SDS011;66710;48.868;9.080;2023-04-03T02:38:30;5.50;;;2.80;;
77573;SDS011;66710;48.868;9.080;2023-04-03T02:41:02;4.82;;;2.40;;
77573;SDS011;66710;48.868;9.080;2023-04-03T02:43:31;4.78;;;2.50;;
77573;SDS011;66710;48.868;9.080;2023-04-03T02:45:57;4.50;;;2.40;;
77573;SDS011;66710;48.868;9.080;2023-04-03T02:48:22;4.25;;;2.70;;
77573;SDS011;66710;48.868;9.080;2023-04-03T02:50:48;4.63;;;2.40;;
77573;SDS011;66710;48.868;9.080;2023-04-03T02:53:14;5.95;;;2.70;;
77573;SDS011;66710;48.868;9.080;2023-04-03T02:55:40;4.22;;;2.22;;
77573;SDS011;66710;48.868;9.080;2023-04-03T02:58:05;4.75;;;2.42;;
77573;SDS011;66710;48.868;9.080;2023-04-03T03:00:31;5.00;;;2.40;;
77573;SDS011;66710;48.868;9.080;2023-04-03T03:02:56;5.47;;;2.40;;
77573;SDS011;66710;48.868;9.080;2023-04-03T03:05:21;5.07;;;2.50;;
77573;SDS011;66710;48.868;9.080;2023-04-03T03:07:47;4.50;;;2.42;;
77573;SDS011;66710;48.868;9.080;2023-04-03T03:10:12;5.10;;;2.08;;
77573;SDS011;66710;48.868;9.080;2023-04-03T03:12:37;4.65;;;2.42;;
77573;SDS011;66710;48.868;9.080;2023-04-03T03:15:02;5.40;;;2.47;;
77573;SDS011;66710;48.868;9.080;2023-04-03T03:17:28;3.47;;;2.10;;
77573;SDS011;66710;48.868;9.080;2023-04-03T03:19:53;5.78;;;2.70;;
77573;SDS011;66710;48.868;9.080;2023-04-03T03:22:19;4.00;;;2.15;;
77573;SDS011;66710;48.868;9.080;2023-04-03T03:24:44;4.78;;;2.70;;
77573;SDS011;66710;48.868;9.080;2023-04-03T03:27:10;4.30;;;2.40;;
77573;SDS011;66710;48.868;9.080;2023-04-03T03:29:35;4.80;;;2.35;;
77573;SDS011;66710;48.868;9.080;2023-04-03T03:32:00;4.47;;;2.55;;
77573;SDS011;66710;48.868;9.080;2023-04-03T03:34:25;3.97;;;2.38;;
77573;SDS011;66710;48.868;9.080;2023-04-03T03:36:51;4.40;;;2.33;;
77573;SDS011;66710;48.868;9.080;2023-04-03T03:39:16;4.00;;;2.15;;
77573;SDS011;66710;48.868;9.080;2023-04-03T03:41:41;4.28;;;2.50;;
77573;SDS011;66710;48.868;9.080;2023-04-03T03:44:06;5.10;;;2.72;;
77573;SDS011;66710;48.868;9.080;2023-04-03T03:46:32;4.15;;;2.03;;
77573;SDS011;66710;48.868;9.080;2023-04-03T03:48:57;5.10;;;2.47;;
77573;SDS011;66710;48.868;9.080;2023-04-03T03:51:22;4.25;;;2.30;;
77573;SDS011;66710;48.868;9.080;2023-04-03T03:53:48;4.85;;;2.40;;
77573;SDS011;66710;48.868;9.080;2023-04-03T03:56:13;4.30;;;2.30;;
77573;SDS011;66710;48.868;9.080;2023-04-03T03:58:38;4.70;;;2.30;;
77573;SDS011;66710;48.868;9.080;2023-04-03T04:01:04;5.22;;;2.60;;
77573;SDS011;66710;48.868;9.080;2023-04-03T04:03:31;4.38;;;2.50;;
77573;SDS011;66710;48.868;9.080;2023-04-03T04:05:56;5.60;;;2.15;;
77573;SDS011;66710;48.868;9.080;2023-04-03T04:08:22;4.68;;;2.58;;
77573;SDS011;66710;48.868;9.080;2023-04-03T04:10:47;4.55;;;2.60;;
77573;SDS011;66710;48.868;9.080;2023-04-03T04:13:12;4.90;;;2.60;;
77573;SDS011;66710;48.868;9.080;2023-04-03T04:15:38;4.70;;;2.50;;
77573;SDS011;66710;48.868;9.080;2023-04-03T04:18:03;8.02;;;2.35;;
77573;SDS011;66710;48.868;9.080;2023-04-03T04:20:28;5.10;;;2.75;;
77573;SDS011;66710;48.868;9.080;2023-04-03T04:22:54;4.13;;;2.45;;
77573;SDS011;66710;48.868;9.080;2023-04-03T04:25:19;4.18;;;2.58;;
77573;SDS011;66710;48.868;9.080;2023-04-03T04:27:45;4.60;;;2.50;;
77573;SDS011;66710;48.868;9.080;2023-04-03T04:30:10;5.20;;;2.03;;
77573;SDS011;66710;48.868;9.080;2023-04-03T04:32:36;5.40;;;2.60;;
77573;SDS011;66710;48.868;9.080;2023-04-03T04:35:02;4.75;;;2.72;;
77573;SDS011;66710;48.868;9.080;2023-04-03T04:37:28;4.45;;;2.78;;
77573;SDS011;66710;48.868;9.080;2023-04-03T04:39:54;6.00;;;2.70;;
77573;SDS011;66710;48.868;9.080;2023-04-03T04:42:19;4.03;;;2.42;;
77573;SDS011;66710;48.868;9.080;2023-04-03T04:44:44;3.95;;;2.35;;
77573;SDS011;66710;48.868;9.080;2023-04-03T04:47:10;4.18;;;2.38;;
77573;SDS011;66710;48.868;9.080;2023-04-03T04:49:35;3.50;;;2.03;;
77573;SDS011;66710;48.868;9.080;2023-04-03T04:52:01;4.40;;;2.20;;
77573;SDS011;66710;48.868;9.080;2023-04-03T04:54:26;3.67;;;2.08;;
77573;SDS011;66710;48.868;9.080;2023-04-03T04:56:51;3.83;;;2.30;;
77573;SDS011;66710;48.868;9.080;2023-04-03T04:59:16;3.95;;;2.22;;
77573;SDS011;66710;48.868;9.080;2023-04-03T05:01:42;4.40;;;2.42;;
77573;SDS011;66710;48.868;9.080;2023-04-03T05:04:07;6.72;;;2.53;;
77573;SDS011;66710;48.868;9.080;2023-04-03T05:06:32;3.67;;;2.17;;
77573;SDS011;66710;48.868;9.080;2023-04-03T05:09:00;4.70;;;2.55;;
77573;SDS011;66710;48.868;9.080;2023-04-03T05:11:25;4.47;;;2.42;;
77573;SDS011;66710;48.868;9.080;2023-04-03T05:13:51;4.80;;;2.42;;
77573;SDS011;66710;48.868;9.080;2023-04-03T05:16:17;4.55;;;2.20;;
77573;SDS011;66710;48.868;9.080;2023-04-03T05:18:42;5.45;;;2.50;;
77573;SDS011;66710;48.868;9.080;2023-04-03T05:21:07;4.38;;;2.53;;
77573;SDS011;66710;48.868;9.080;2023-04-03T05:23:32;5.13;;;2.70;;
77573;SDS011;66710;48.868;9.080;2023-04-03T05:25:58;5.50;;;2.38;;
77573;SDS011;66710;48.868;9.080;2023-04-03T05:28:23;4.82;;;2.50;;
77573;SDS011;66710;48.868;9.080;2023-04-03T05:30:55;5.75;;;2.40;;
77573;SDS011;66710;48.868;9.080;2023-04-03T05:33:23;5.05;;;2.53;;
77573;SDS011;66710;48.868;9.080;2023-04-03T05:35:48;5.80;;;2.67;;
77573;SDS011;66710;48.868;9.080;2023-04-03T05:38:14;4.78;;;2.85;;
77573;SDS011;66710;48.868;9.080;2023-04-03T05:40:40;4.32;;;2.65;;
77573;SDS011;66710;48.868;9.080;2023-04-03T05:43:05;6.03;;;3.00;;
77573;SDS011;66710;48.868;9.080;2023-04-03T05:45:30;4.60;;;2.60;;
77573;SDS011;66710;48.868;9.080;2023-04-03T05:47:56;4.38;;;2.75;;
77573;SDS011;66710;48.868;9.080;2023-04-03T05:50:21;4.90;;;2.53;;
77573;SDS011;66710;48.868;9.080;2023-04-03T05:52:47;3.78;;;2.30;;
77573;SDS011;66710;48.868;9.080;2023-04-03T05:55:14;3.70;;;2.30;;
77573;SDS011;66710;48.868;9.080;2023-04-03T05:57:39;7.35;;;2.83;;
77573;SDS011;66710;48.868;9.080;2023-04-03T06:00:06;5.90;;;2.53;;
77573;SDS011;66710;48.868;9.080;2023-04-03T06:02:34;6.22;;;2.78;;
77573;SDS011;66710;48.868;9.080;2023-04-03T06:05:00;6.32;;;2.92;;
77573;SDS011;66710;48.868;9.080;2023-04-03T06:07:26;5.03;;;2.72;;
77573;SDS011;66710;48.868;9.080;2023-04-03T06:09:53;5.90;;;2.60;;
77573;SDS011;66710;48.868;9.080;2023-04-03T06:12:20;4.13;;;2.45;;
77573;SDS011;66710;48.868;9.080;2023-04-03T06:14:46;6.05;;;2.85;;
77573;SDS011;66710;48.868;9.080;2023-04-03T06:17:12;4.20;;;2.30;;
77573;SDS011;66710;48.868;9.080;2023-04-03T06:19:38;5.32;;;2.45;;
77573;SDS011;66710;48.868;9.080;2023-04-03T06:22:03;5.93;;;2.80;;
77573;SDS011;66710;48.868;9.080;2023-04-03T06:24:29;5.38;;;2.50;;
77573;SDS011;66710;48.868;9.080;2023-04-03T06:26:56;5.60;;;2.53;;
77573;SDS011;66710;48.868;9.080;2023-04-03T06:29:21;3.85;;;2.38;;
77573;SDS011;66710;48.868;9.080;2023-04-03T06:31:47;5.10;;;2.78;;
77573;SDS011;66710;48.868;9.080;2023-04-03T06:34:13;4.25;;;2.42;;
77573;SDS011;66710;48.868;9.080;2023-04-03T06:36:39;4.88;;;2.47;;
77573;SDS011;66710;48.868;9.080;2023-04-03T06:39:04;4.50;;;2.40;;
77573;SDS011;66710;48.868;9.080;2023-04-03T06:41:30;4.22;;;2.53;;
77573;SDS011;66710;48.868;9.080;2023-04-03T06:43:56;5.30;;;2.22;;
77573;SDS011;66710;48.868;9.080;2023-04-03T06:46:23;4.43;;;2.55;;
77573;SDS011;66710;48.868;9.080;2023-04-03T06:48:49;4.15;;;2.38;;
77573;SDS011;66710;48.868;9.080;2023-04-03T06:51:19;4.35;;;2.30;;
77573;SDS011;66710;48.868;9.080;2023-04-03T06:53:49;4.63;;;2.50;;
77573;SDS011;66710;48.868;9.080;2023-04-03T06:56:16;6.22;;;2.88;;
77573;SDS011;66710;48.868;9.080;2023-04-03T06:58:42;4.75;;;2.58;;
77573;SDS011;66710;48.868;9.080;2023-04-03T07:01:08;6.82;;;2.53;;
77573;SDS011;66710;48.868;9.080;2023-04-03T07:03:35;4.25;;;2.20;;
77573;SDS011;66710;48.868;9.080;2023-04-03T07:06:00;5.32;;;2.33;;
77573;SDS011;66710;48.868;9.080;2023-04-03T07:08:26;5.20;;;2.70;;
77573;SDS011;66710;48.868;9.080;2023-04-03T07:10:51;6.00;;;2.50;;
77573;SDS011;66710;48.868;9.080;2023-04-03T07:13:16;6.22;;;2.72;;
77573;SDS011;66710;48.868;9.080;2023-04-03T07:15:42;4.60;;;2.80;;
77573;SDS011;66710;48.868;9.080;2023-04-03T07:18:07;5.18;;;2.00;;
77573;SDS011;66710;48.868;9.080;2023-04-03T07:20:32;6.40;;;2.83;;
77573;SDS011;66710;48.868;9.080;2023-04-03T07:22:58;4.57;;;2.55;;
77573;SDS011;66710;48.868;9.080;2023-04-03T07:25:23;5.47;;;2.78;;
77573;SDS011;66710;48.868;9.080;2023-04-03T07:27:49;4.80;;;3.00;;
77573;SDS011;66710;48.868;9.080;2023-04-03T07:30:14;5.07;;;3.20;;
77573;SDS011;66710;48.868;9.080;2023-04-03T07:32:39;4.93;;;2.83;;
77573;SDS011;66710;48.868;9.080;2023-04-03T07:35:05;6.00;;;2.72;;
77573;SDS011;66710;48.868;9.080;2023-04-03T07:37:31;5.07;;;2.80;;
77573;SDS011;66710;48.868;9.080;2023-04-03T07:39:57;6.25;;;3.05;;
77573;SDS011;66710;48.868;9.080;2023-04-03T07:42:23;5.22;;;2.75;;
77573;SDS011;66710;48.868;9.080;2023-04-03T07:44:49;3.40;;;2.10;;
77573;SDS011;66710;48.868;9.080;2023-04-03T07:47:14;3.45;;;2.10;;
77573;SDS011;66710;48.868;9.080;2023-04-03T07:49:42;6.32;;;2.40;;
77573;SDS011;66710;48.868;9.080;2023-04-03T07:52:08;5.32;;;2.63;;
77573;SDS011;66710;48.868;9.080;2023-04-03T07:54:34;5.75;;;2.42;;
77573;SDS011;66710;48.868;9.080;2023-04-03T07:57:00;5.05;;;2.30;;
77573;SDS011;66710;48.868;9.080;2023-04-03T07:59:25;4.88;;;2.10;;
77573;SDS011;66710;48.868;9.080;2023-04-03T08:01:50;5.43;;;2.28;;
77573;SDS011;66710;48.868;9.080;2023-04-03T08:04:16;4.45;;;2.60;;
77573;SDS011;66710;48.868;9.080;2023-04-03T08:06:41;6.63;;;2.47;;
77573;SDS011;66710;48.868;9.080;2023-04-03T08:09:06;5.10;;;2.60;;
77573;SDS011;66710;48.868;9.080;2023-04-03T08:11:32;4.63;;;2.50;;
77573;SDS011;66710;48.868;9.080;2023-04-03T08:13:57;4.07;;;2.00;;
77573;SDS011;66710;48.868;9.080;2023-04-03T08:16:23;6.28;;;3.10;;
77573;SDS011;66710;48.868;9.080;2023-04-03T08:18:51;4.18;;;2.45;;
77573;SDS011;66710;48.868;9.080;2023-04-03T08:21:17;4.72;;;2.45;;
77573;SDS011;66710;48.868;9.080;2023-04-03T08:23:42;5.63;;;2.55;;
77573;SDS011;66710;48.868;9.080;2023-04-03T08:26:18;4.82;;;2.70;;
77573;SDS011;66710;48.868;9.080;2023-04-03T08:28:46;6.90;;;3.20;;
77573;SDS011;66710;48.868;9.080;2023-04-03T08:31:13;5.30;;;2.58;;
77573;SDS011;66710;48.868;9.080;2023-04-03T08:33:40;6.18;;;3.50;;
77573;SDS011;66710;48.868;9.080;2023-04-03T08:36:06;5.35;;;2.85;;
77573;SDS011;66710;48.868;9.080;2023-04-03T08:38:39;6.15;;;2.70;;
77573;SDS011;66710;48.868;9.080;2023-04-03T08:43:47;5.68;;;2.75;;
77573;SDS011;66710;48.868;9.080;2023-04-03T08:46:17;6.28;;;2.72;;
77573;SDS011;66710;48.868;9.080;2023-04-03T08:48:47;3.97;;;2.35;;
77573;SDS011;66710;48.868;9.080;2023-04-03T08:51:16;3.88;;;2.45;;
77573;SDS011;66710;48.868;9.080;2023-04-03T08:53:59;5.05;;;2.70;;
77573;SDS011;66710;48.868;9.080;2023-04-03T08:56:30;5.82;;;2.58;;
77573;SDS011;66710;48.868;9.080;2023-04-03T08:58:59;6.30;;;2.50;;
77573;SDS011;66710;48.868;9.080;2023-04-03T09:04:02;6.25;;;2.80;;
77573;SDS011;66710;48.868;9.080;2023-04-03T09:06:34;6.88;;;3.15;;
77573;SDS011;66710;48.868;9.080;2023-04-03T09:09:11;6.50;;;2.75;;
77573;SDS011;66710;48.868;9.080;2023-04-03T09:14:48;3.75;;;2.25;;
77573;SDS011;66710;48.868;9.080;2023-04-03T09:22:33;5.22;;;2.80;;
77573;SDS011;66710;48.868;9.080;2023-04-03T09:27:43;5.78;;;2.60;;
77573;SDS011;66710;48.868;9.080;2023-04-03T09:30:15;4.18;;;2.67;;
77573;SDS011;66710;48.868;9.080;2023-04-03T09:32:44;6.10;;;2.33;;
77573;SDS011;66710;48.868;9.080;2023-04-03T09:42:52;5.20;;;2.20;;
77573;SDS011;66710;48.868;9.080;2023-04-03T09:45:35;3.83;;;2.25;;
77573;SDS011;66710;48.868;9.080;2023-04-03T09:50:34;3.15;;;1.83;;
77573;SDS011;66710;48.868;9.080;2023-04-03T09:53:06;4.32;;;2.20;;
77573;SDS011;66710;48.868;9.080;2023-04-03T09:55:50;3.50;;;2.00;;
77573;SDS011;66710;48.868;9.080;2023-04-03T10:00:56;3.25;;;2.10;;
77573;SDS011;66710;48.868;9.080;2023-04-03T10:03:35;5.38;;;2.35;;
77573;SDS011;66710;48.868;9.080;2023-04-03T10:06:05;3.55;;;2.20;;
77573;SDS011;66710;48.868;9.080;2023-04-03T10:09:49;4.30;;;2.40;;
77573;SDS011;66710;48.868;9.080;2023-04-03T10:14:32;5.10;;;2.17;;
77573;SDS011;66710;48.868;9.080;2023-04-03T10:20:00;3.67;;;2.13;;
77573;SDS011;66710;48.868;9.080;2023-04-03T10:22:38;3.42;;;1.70;;
77573;SDS011;66710;48.868;9.080;2023-04-03T10:34:21;4.25;;;2.00;;
77573;SDS011;66710;48.868;9.080;2023-04-03T10:39:54;3.40;;;1.95;;
77573;SDS011;66710;48.868;9.080;2023-04-03T10:42:28;2.97;;;1.77;;
77573;SDS011;66710;48.868;9.080;2023-04-03T10:45:10;3.72;;;2.00;;
77573;SDS011;66710;48.868;9.080;2023-04-03T10:50:26;4.22;;;2.10;;
77573;SDS011;66710;48.868;9.080;2023-04-03T10:55:56;5.38;;;1.90;;
77573;SDS011;66710;48.868;9.080;2023-04-03T10:58:36;3.80;;;2.15;;
77573;SDS011;66710;48.868;9.080;2023-04-03T11:01:27;3.45;;;1.80;;
77573;SDS011;66710;48.868;9.080;2023-04-03T11:03:56;3.35;;;1.80;;
77573;SDS011;66710;48.868;9.080;2023-04-03T11:06:24;2.08;;;1.25;;
77573;SDS011;66710;48.868;9.080;2023-04-03T11:08:53;2.72;;;1.50;;
77573;SDS011;66710;48.868;9.080;2023-04-03T11:11:30;3.03;;;1.65;;
77573;SDS011;66710;48.868;9.080;2023-04-03T11:14:01;3.50;;;1.90;;
77573;SDS011;66710;48.868;9.080;2023-04-03T11:16:31;2.60;;;1.60;;
77573;SDS011;66710;48.868;9.080;2023-04-03T11:22:16;1.65;;;1.13;;
77573;SDS011;66710;48.868;9.080;2023-04-03T11:24:55;1.77;;;1.17;;
77573;SDS011;66710;48.868;9.080;2023-04-03T11:27:24;4.03;;;1.75;;
77573;SDS011;66710;48.868;9.080;2023-04-03T11:29:52;2.90;;;1.65;;
77573;SDS011;66710;48.868;9.080;2023-04-03T11:35:00;5.15;;;2.30;;
77573;SDS011;66710;48.868;9.080;2023-04-03T11:39:58;3.97;;;1.77;;
77573;SDS011;66710;48.868;9.080;2023-04-03T11:42:38;4.77;;;2.00;;
77573;SDS011;66710;48.868;9.080;2023-04-03T11:47:53;2.97;;;1.80;;
77573;SDS011;66710;48.868;9.080;2023-04-03T11:58:16;3.60;;;1.60;;
77573;SDS011;66710;48.868;9.080;2023-04-03T12:01:05;2.40;;;1.55;;
77573;SDS011;66710;48.868;9.080;2023-04-03T12:03:33;3.85;;;1.90;;
77573;SDS011;66710;48.868;9.080;2023-04-03T12:21:13;4.45;;;1.80;;
77573;SDS011;66710;48.868;9.080;2023-04-03T12:26:41;3.45;;;1.77;;
77573;SDS011;66710;48.868;9.080;2023-04-03T12:40:01;5.13;;;2.13;;
77573;SDS011;66710;48.868;9.080;2023-04-03T12:42:57;3.88;;;2.08;;
77573;SDS011;66710;48.868;9.080;2023-04-03T12:45:37;3.75;;;1.90;;
77573;SDS011;66710;48.868;9.080;2023-04-03T12:48:06;3.20;;;1.90;;
77573;SDS011;66710;48.868;9.080;2023-04-03T12:50:39;4.82;;;1.70;;
77573;SDS011;66710;48.868;9.080;2023-04-03T12:53:10;2.40;;;1.73;;
77573;SDS011;66710;48.868;9.080;2023-04-03T12:55:57;2.65;;;1.55;;
77573;SDS011;66710;48.868;9.080;2023-04-03T12:59:13;3.25;;;1.88;;
77573;SDS011;66710;48.868;9.080;2023-04-03T13:01:52;2.67;;;1.70;;
77573;SDS011;66710;48.868;9.080;2023-04-03T13:04:19;4.82;;;1.80;;
77573;SDS011;66710;48.868;9.080;2023-04-03T13:06:45;5.18;;;2.00;;
77573;SDS011;66710;48.868;9.080;2023-04-03T13:09:26;4.70;;;1.90;;
77573;SDS011;66710;48.868;9.080;2023-04-03T13:11:56;4.57;;;2.10;;
77573;SDS011;66710;48.868;9.080;2023-04-03T13:14:25;4.00;;;1.98;;
77573;SDS011;66710;48.868;9.080;2023-04-03T13:16:54;4.35;;;1.90;;
77573;SDS011;66710;48.868;9.080;2023-04-03T13:19:22;2.85;;;1.77;;
77573;SDS011;66710;48.868;9.080;2023-04-03T13:21:50;3.58;;;1.90;;
77573;SDS011;66710;48.868;9.080;2023-04-03T13:24:21;3.22;;;2.10;;
77573;SDS011;66710;48.868;9.080;2023-04-03T13:26:46;3.90;;;1.88;;
77573;SDS011;66710;48.868;9.080;2023-04-03T13:29:29;3.42;;;1.67;;
77573;SDS011;66710;48.868;9.080;2023-04-03T13:32:00;3.63;;;2.15;;
77573;SDS011;66710;48.868;9.080;2023-04-03T13:34:29;4.85;;;2.50;;
77573;SDS011;66710;48.868;9.080;2023-04-03T13:37:01;5.03;;;2.20;;
77573;SDS011;66710;48.868;9.080;2023-04-03T13:39:30;5.45;;;2.85;;
77573;SDS011;66710;48.868;9.080;2023-04-03T13:41:59;5.22;;;2.40;;
77573;SDS011;66710;48.868;9.080;2023-04-03T13:47:18;4.72;;;2.55;;
77573;SDS011;66710;48.868;9.080;2023-04-03T13:50:03;4.93;;;2.20;;
77573;SDS011;66710;48.868;9.080;2023-04-03T13:52:41;3.63;;;2.00;;
77573;SDS011;66710;48.868;9.080;2023-04-03T13:57:57;3.75;;;2.20;;
77573;SDS011;66710;48.868;9.080;2023-04-03T14:00:37;5.82;;;2.35;;
77573;SDS011;66710;48.868;9.080;2023-04-03T14:03:21;4.90;;;2.28;;
77573;SDS011;66710;48.868;9.080;2023-04-03T14:05:50;3.30;;;1.80;;
77573;SDS011;66710;48.868;9.080;2023-04-03T14:08:15;4.57;;;2.22;;
77573;SDS011;66710;48.868;9.080;2023-04-03T14:10:41;3.50;;;2.10;;
77573;SDS011;66710;48.868;9.080;2023-04-03T14:13:09;6.25;;;2.80;;
77573;SDS011;66710;48.868;9.080;2023-04-03T14:15:38;4.65;;;2.25;;
77573;SDS011;66710;48.868;9.080;2023-04-03T14:18:03;3.58;;;2.17;;
77573;SDS011;66710;48.868;9.080;2023-04-03T14:20:29;5.65;;;2.15;;
77573;SDS011;66710;48.868;9.080;2023-04-03T14:22:54;4.13;;;2.03;;
77573;SDS011;66710;48.868;9.080;2023-04-03T14:25:20;4.38;;;2.50;;
77573;SDS011;66710;48.868;9.080;2023-04-03T14:27:49;3.53;;;1.77;;
77573;SDS011;66710;48.868;9.080;2023-04-03T14:32:48;5.53;;;2.90;;
77573;SDS011;66710;48.868;9.080;2023-04-03T14:35:14;4.45;;;2.20;;
77573;SDS011;66710;48.868;9.080;2023-04-03T14:37:41;4.60;;;2.38;;
77573;SDS011;66710;48.868;9.080;2023-04-03T14:40:07;3.40;;;1.85;;
77573;SDS011;66710;48.868;9.080;2023-04-03T14:42:35;3.65;;;2.08;;
77573;SDS011;66710;48.868;9.080;2023-04-03T14:45:03;4.50;;;2.05;;
77573;SDS011;66710;48.868;9.080;2023-04-03T14:47:31;2.80;;;1.75;;
77573;SDS011;66710;48.868;9.080;2023-04-03T14:49:57;4.13;;;2.10;;
77573;SDS011;66710;48.868;9.080;2023-04-03T14:52:24;4.25;;;2.20;;
77573;SDS011;66710;48.868;9.080;2023-04-03T14:54:55;4.43;;;1.98;;
77573;SDS011;66710;48.868;9.080;2023-04-03T14:57:21;3.20;;;1.80;;
77573;SDS011;66710;48.868;9.080;2023-04-03T14:59:49;3.60;;;1.92;;
77573;SDS011;66710;48.868;9.080;2023-04-03T15:02:24;3.10;;;1.80;;
77573;SDS011;66710;48.868;9.080;2023-04-03T15:04:54;5.55;;;2.50;;
77573;SDS011;66710;48.868;9.080;2023-04-03T15:07:21;4.28;;;2.30;;
77573;SDS011;66710;48.868;9.080;2023-04-03T15:09:48;3.35;;;1.90;;
77573;SDS011;66710;48.868;9.080;2023-04-03T15:12:14;4.72;;;2.25;;
77573;SDS011;66710;48.868;9.080;2023-04-03T15:14:40;4.18;;;2.15;;
77573;SDS011;66710;48.868;9.080;2023-04-03T15:17:05;3.80;;;2.50;;
77573;SDS011;66710;48.868;9.080;2023-04-03T15:19:38;5.95;;;2.15;;
77573;SDS011;66710;48.868;9.080;2023-04-03T15:22:04;4.72;;;2.70;;
77573;SDS011;66710;48.868;9.080;2023-04-03T15:24:29;5.57;;;2.50;;
77573;SDS011;66710;48.868;9.080;2023-04-03T15:26:55;6.65;;;2.67;;
77573;SDS011;66710;48.868;9.080;2023-04-03T15:29:20;4.63;;;2.13;;
77573;SDS011;66710;48.868;9.080;2023-04-03T15:31:45;5.20;;;2.55;;
77573;SDS011;66710;48.868;9.080;2023-04-03T15:34:11;3.83;;;2.58;;
77573;SDS011;66710;48.868;9.080;2023-04-03T15:36:36;3.25;;;1.60;;
77573;SDS011;66710;48.868;9.080;2023-04-03T15:39:01;4.03;;;2.40;;
77573;SDS011;66710;48.868;9.080;2023-04-03T15:41:27;6.53;;;2.58;;
77573;SDS011;66710;48.868;9.080;2023-04-03T15:43:53;5.47;;;2.47;;
77573;SDS011;66710;48.868;9.080;2023-04-03T15:46:18;4.38;;;2.40;;
77573;SDS011;66710;48.868;9.080;2023-04-03T15:48:43;5.13;;;2.42;;
77573;SDS011;66710;48.868;9.080;2023-04-03T15:51:09;3.35;;;2.00;;
77573;SDS011;66710;48.868;9.080;2023-04-03T15:53:35;4.28;;;2.33;;
77573;SDS011;66710;48.868;9.080;2023-04-03T15:56:00;3.88;;;1.98;;
77573;SDS011;66710;48.868;9.080;2023-04-03T15:58:25;4.38;;;2.03;;
77573;SDS011;66710;48.868;9.080;2023-04-03T16:00:51;3.30;;;1.95;;
77573;SDS011;66710;48.868;9.080;2023-04-03T16:03:17;4.28;;;2.20;;
77573;SDS011;66710;48.868;9.080;2023-04-03T16:05:44;5.70;;;3.10;;
77573;SDS011;66710;48.868;9.080;2023-04-03T16:08:10;8.00;;;4.32;;
77573;SDS011;66710;48.868;9.080;2023-04-03T16:10:36;7.90;;;3.80;;
77573;SDS011;66710;48.868;9.080;2023-04-03T16:13:01;9.32;;;4.32;;
77573;SDS011;66710;48.868;9.080;2023-04-03T16:15:27;8.75;;;4.20;;
77573;SDS011;66710;48.868;9.080;2023-04-03T16:17:53;9.68;;;4.53;;
77573;SDS011;66710;48.868;9.080;2023-04-03T16:20:19;10.88;;;4.70;;
77573;SDS011;66710;48.868;9.080;2023-04-03T16:22:46;5.63;;;2.70;;
77573;SDS011;66710;48.868;9.080;2023-04-03T16:25:12;4.70;;;2.60;;
77573;SDS011;66710;48.868;9.080;2023-04-03T16:27:37;3.72;;;2.20;;
77573;SDS011;66710;48.868;9.080;2023-04-03T16:30:03;3.55;;;2.10;;
77573;SDS011;66710;48.868;9.080;2023-04-03T16:32:29;4.32;;;2.28;;
77573;SDS011;66710;48.868;9.080;2023-04-03T16:34:56;4.43;;;2.30;;
77573;SDS011;66710;48.868;9.080;2023-04-03T16:37:22;4.97;;;2.28;;
77573;SDS011;66710;48.868;9.080;2023-04-03T16:39:47;5.47;;;2.63;;
77573;SDS011;66710;48.868;9.080;2023-04-03T16:42:13;5.70;;;2.53;;
77573;SDS011;66710;48.868;9.080;2023-04-03T16:44:38;7.22;;;2.40;;
77573;SDS011;66710;48.868;9.080;2023-04-03T16:47:04;4.80;;;2.33;;
77573;SDS011;66710;48.868;9.080;2023-04-03T16:49:30;5.65;;;3.00;;
77573;SDS011;66710;48.868;9.080;2023-04-03T16:51:58;6.22;;;2.38;;